createdAt,value
2022-11-21T00:01:20.647Z,100278.38
2022-11-21T00:03:48.535Z,100258.16
2022-11-21T00:06:16.739Z,100258.91
2022-11-21T00:08:44.920Z,100252.81
2022-11-21T00:11:12.528Z,100245.91
2022-11-21T00:13:40.350Z,100243.44
2022-11-21T00:16:11.051Z,100246.00
2022-11-21T00:18:38.622Z,100249.38
2022-11-21T00:21:13.482Z,100249.25
2022-11-21T00:23:41.150Z,100257.78
2022-11-21T00:26:10.172Z,100257.94
2022-11-21T00:28:38.227Z,100263.25
2022-11-21T00:31:06.043Z,100261.69
2022-11-21T00:33:37.094Z,100266.06
2022-11-21T00:36:11.041Z,100276.59
2022-11-21T00:38:38.454Z,100269.97
2022-11-21T00:41:06.143Z,100270.94
2022-11-21T00:43:33.965Z,100269.25
2022-11-21T00:46:03.050Z,100260.34
2022-11-21T00:48:31.958Z,100254.94
2022-11-21T00:51:00.799Z,100268.38
2022-11-21T00:53:29.362Z,100273.50
2022-11-21T00:55:57.630Z,100265.69
2022-11-21T00:58:25.208Z,100274.81
2022-11-21T01:00:52.620Z,100271.38
2022-11-21T01:03:20.607Z,100263.28
2022-11-21T01:05:48.000Z,100264.09
2022-11-21T01:08:15.320Z,100267.50
2022-11-21T01:10:42.919Z,100258.66
2022-11-21T01:13:10.330Z,100254.44
2022-11-21T01:15:37.691Z,100235.97
2022-11-21T01:18:05.144Z,100245.81
2022-11-21T01:20:32.545Z,100244.09
2022-11-21T01:23:00.009Z,100243.91
2022-11-21T01:25:27.549Z,100230.53
2022-11-21T01:27:54.942Z,100238.72
2022-11-21T01:30:22.354Z,100241.63
2022-11-21T01:32:50.266Z,100254.03
2022-11-21T01:35:50.751Z,100255.91
2022-11-21T01:38:18.164Z,100247.25
2022-11-21T01:40:45.523Z,100257.66
2022-11-21T01:43:15.791Z,100259.34
2022-11-21T01:45:52.076Z,100276.03
2022-11-21T01:48:22.776Z,100264.66
2022-11-21T01:50:50.322Z,100262.94
2022-11-21T01:53:18.427Z,100267.59
2022-11-21T01:55:45.930Z,100279.81
2022-11-21T01:58:13.814Z,100263.97
2022-11-21T02:00:46.159Z,100269.22
2022-11-21T02:03:18.971Z,100264.03
2022-11-21T02:05:47.460Z,100265.69
2022-11-21T02:08:19.420Z,100252.53
2022-11-21T02:11:12.214Z,100259.59
2022-11-21T02:13:39.809Z,100257.81
2022-11-21T02:16:08.051Z,100265.81
2022-11-21T02:18:35.990Z,100253.56
2022-11-21T02:21:13.593Z,100273.69
2022-11-21T02:24:00.490Z,100249.00
2022-11-21T02:26:29.247Z,100260.19
2022-11-21T02:28:57.241Z,100252.44
2022-11-21T02:31:24.630Z,100251.59
2022-11-21T02:33:51.967Z,100247.25
2022-11-21T02:36:48.730Z,100255.13
2022-11-21T02:39:23.068Z,100237.53
2022-11-21T02:41:57.800Z,100242.06
2022-11-21T02:44:36.780Z,100241.13
2022-11-21T02:47:04.401Z,100250.91
2022-11-21T02:49:43.021Z,100234.28
2022-11-21T02:52:10.472Z,100229.19
2022-11-21T02:54:37.894Z,100231.03
2022-11-21T02:57:05.238Z,100221.44
2022-11-21T02:59:32.754Z,100214.34
2022-11-21T03:02:01.120Z,100210.88
2022-11-21T03:04:29.223Z,100219.97
2022-11-21T03:06:56.917Z,100216.72
2022-11-21T03:09:24.253Z,100218.28
2022-11-21T03:11:51.816Z,100197.81
2022-11-21T03:14:19.249Z,100202.16
2022-11-21T03:16:46.620Z,100191.47
2022-11-21T03:19:13.967Z,100195.88
2022-11-21T03:21:41.370Z,100190.41
2022-11-21T03:24:08.776Z,100193.19
2022-11-21T03:26:36.145Z,100191.53
2022-11-21T03:29:03.568Z,100193.53
2022-11-21T03:31:31.055Z,100186.44
2022-11-21T03:33:58.500Z,100177.50
2022-11-21T03:36:26.155Z,100188.84
2022-11-21T03:38:57.140Z,100195.91
2022-11-21T03:41:29.436Z,100191.41
2022-11-21T03:44:03.909Z,100185.31
2022-11-21T03:46:34.874Z,100183.84
2022-11-21T03:49:02.615Z,100193.66
2022-11-21T03:51:31.303Z,100180.66
2022-11-21T03:53:59.159Z,100163.00
2022-11-21T03:56:27.992Z,100171.91
2022-11-21T03:58:55.875Z,100170.72
2022-11-21T04:01:23.891Z,100163.66
2022-11-21T04:03:52.149Z,100155.63
2022-11-21T04:06:21.272Z,100160.00
2022-11-21T04:08:49.645Z,100166.19
2022-11-21T04:11:17.292Z,100160.03
2022-11-21T04:13:44.942Z,100167.19
2022-11-21T04:16:12.249Z,100175.25
2022-11-21T04:18:39.781Z,100167.34
2022-11-21T04:21:08.544Z,100174.31
2022-11-21T04:23:36.128Z,100172.75
2022-11-21T04:26:04.017Z,100175.34
2022-11-21T04:28:31.808Z,100174.44
2022-11-21T04:31:10.454Z,100168.41
2022-11-21T04:33:39.687Z,100178.03
2022-11-21T04:36:09.014Z,100178.06
2022-11-21T04:38:36.984Z,100175.38
2022-11-21T04:41:05.018Z,100161.28
2022-11-21T04:43:32.584Z,100168.44
2022-11-21T04:45:59.936Z,100165.94
2022-11-21T04:48:27.400Z,100143.81
2022-11-21T04:50:54.847Z,100167.53
2022-11-21T04:53:22.256Z,100162.19
2022-11-21T04:55:49.638Z,100170.03
2022-11-21T04:58:17.107Z,100168.44
2022-11-21T05:00:44.481Z,100169.34
2022-11-21T05:03:11.939Z,100162.28
2022-11-21T05:05:39.330Z,100158.97
2022-11-21T05:08:06.772Z,100171.25
2022-11-21T05:10:54.082Z,100171.22
2022-11-21T05:13:21.443Z,100158.06
2022-11-21T05:15:51.785Z,100159.84
2022-11-21T05:18:20.072Z,100169.34
2022-11-21T05:20:47.518Z,100166.69
2022-11-21T05:23:14.902Z,100155.34
2022-11-21T05:25:42.317Z,100158.72
2022-11-21T05:28:10.125Z,100165.75
2022-11-21T05:30:37.804Z,100157.75
2022-11-21T05:33:05.508Z,100161.16
2022-11-21T05:35:32.936Z,100151.47
2022-11-21T05:38:00.281Z,100145.34
2022-11-21T05:40:27.703Z,100156.00
2022-11-21T05:43:13.529Z,100133.09
2022-11-21T05:45:40.928Z,100138.34
2022-11-21T05:48:08.491Z,100133.03
2022-11-21T05:50:36.624Z,100128.63
2022-11-21T05:53:04.885Z,100113.06
2022-11-21T05:55:35.187Z,100115.56
2022-11-21T05:58:02.806Z,100140.06
2022-11-21T06:00:30.319Z,100117.13
2022-11-21T06:03:16.421Z,100129.38
2022-11-21T06:05:43.843Z,100144.31
2022-11-21T06:08:11.472Z,100134.72
2022-11-21T06:10:39.209Z,100129.56
2022-11-21T06:13:22.162Z,100140.16
2022-11-21T06:16:00.421Z,100147.16
2022-11-21T06:18:29.500Z,100150.69
2022-11-21T06:21:12.943Z,100151.44
2022-11-21T06:23:40.903Z,100127.06
2022-11-21T06:26:30.018Z,100129.66
2022-11-21T06:28:57.457Z,100121.75
2022-11-21T06:31:26.546Z,100109.38
2022-11-21T06:33:56.500Z,100109.28
2022-11-21T06:36:24.359Z,100125.97
2022-11-21T06:38:53.920Z,100120.56
2022-11-21T06:41:24.701Z,100126.72
2022-11-21T06:43:52.844Z,100126.84
2022-11-21T06:46:20.245Z,100141.06
2022-11-21T06:48:47.826Z,100150.03
2022-11-21T06:51:23.613Z,100141.91
2022-11-21T06:53:59.155Z,100140.06
2022-11-21T06:56:28.698Z,100129.41
2022-11-21T06:58:56.333Z,100149.53
2022-11-21T07:01:24.054Z,100139.16
2022-11-21T07:03:51.931Z,100151.53
2022-11-21T07:06:19.416Z,100135.66
2022-11-21T07:08:52.407Z,100147.97
2022-11-21T07:11:24.906Z,100161.06
2022-11-21T07:13:53.121Z,100155.84
2022-11-21T07:16:20.579Z,100155.63
2022-11-21T07:18:48.008Z,100159.88
2022-11-21T07:21:15.474Z,100161.56
2022-11-21T07:23:43.116Z,100173.06
2022-11-21T07:26:11.113Z,100168.59
2022-11-21T07:28:38.652Z,100178.13
2022-11-21T07:31:12.970Z,100183.31
2022-11-21T07:33:43.454Z,100185.81
2022-11-21T07:36:12.217Z,100188.22
2022-11-21T07:38:41.571Z,100186.44
2022-11-21T07:41:10.065Z,100187.25
2022-11-21T07:43:37.426Z,100188.91
2022-11-21T07:46:04.949Z,100189.72
2022-11-21T07:48:32.488Z,100195.00
2022-11-21T07:51:03.783Z,100187.03
2022-11-21T07:53:31.199Z,100180.63
2022-11-21T07:56:00.001Z,100179.56
2022-11-21T07:58:27.718Z,100181.13
2022-11-21T08:00:55.088Z,100177.03
2022-11-21T08:03:23.057Z,100183.97
2022-11-21T08:05:50.642Z,100175.78
2022-11-21T08:08:18.110Z,100177.44
2022-11-21T08:10:46.987Z,100175.59
2022-11-21T08:13:14.873Z,100188.00
2022-11-21T08:15:42.332Z,100183.75
2022-11-21T08:18:15.190Z,100178.91
2022-11-21T08:20:42.960Z,100191.28
2022-11-21T08:23:11.079Z,100192.91
2022-11-21T08:25:39.834Z,100180.84
2022-11-21T08:28:08.620Z,100174.38
2022-11-21T08:30:37.303Z,100173.47
2022-11-21T08:33:06.123Z,100183.84
2022-11-21T08:35:36.424Z,100180.28
2022-11-21T08:38:04.708Z,100174.00
2022-11-21T08:40:32.972Z,100173.81
2022-11-21T08:43:06.306Z,100177.19
2022-11-21T08:45:35.318Z,100169.19
2022-11-21T08:48:03.207Z,100155.78
2022-11-21T08:50:32.110Z,100166.25
2022-11-21T08:53:01.306Z,100177.94
2022-11-21T08:55:29.339Z,100162.97
2022-11-21T08:57:56.757Z,100157.22
2022-11-21T09:00:24.236Z,100159.44
2022-11-21T09:02:51.730Z,100160.34
2022-11-21T09:05:19.166Z,100142.44
2022-11-21T09:07:47.543Z,100145.47
2022-11-21T09:10:15.409Z,100140.00
2022-11-21T09:12:43.525Z,100143.22
2022-11-21T09:15:30.526Z,100143.00
2022-11-21T09:18:04.772Z,100138.38
2022-11-21T09:20:34.660Z,100149.03
2022-11-21T09:23:06.361Z,100154.22
2022-11-21T09:25:34.384Z,100156.66
2022-11-21T09:28:03.173Z,100155.44
2022-11-21T09:30:30.611Z,100157.13
2022-11-21T09:33:05.103Z,100153.38
2022-11-21T09:35:33.263Z,100151.56
2022-11-21T09:38:09.062Z,100152.09
2022-11-21T09:40:37.190Z,100152.19
2022-11-21T09:43:32.127Z,100146.91
2022-11-21T09:46:21.732Z,100142.47
2022-11-21T09:48:58.289Z,100137.28
2022-11-21T09:51:29.343Z,100128.00
2022-11-21T09:54:02.597Z,100119.00
2022-11-21T09:56:35.449Z,100120.78
2022-11-21T09:59:25.151Z,100129.28
2022-11-21T10:01:52.662Z,100125.06
2022-11-21T10:04:20.271Z,100120.50
2022-11-21T10:07:06.880Z,100126.50
2022-11-21T10:09:44.489Z,100125.44
2022-11-21T10:12:40.369Z,100126.16
2022-11-21T10:15:35.422Z,100119.13
2022-11-21T10:18:33.435Z,100120.44
2022-11-21T10:21:15.796Z,100116.72
2022-11-21T10:24:02.104Z,100114.31
2022-11-21T10:26:47.404Z,100104.63
2022-11-21T10:29:15.030Z,100101.22
2022-11-21T10:31:43.909Z,100098.63
2022-11-21T10:34:15.648Z,100101.91
2022-11-21T10:36:49.454Z,100105.50
2022-11-21T10:39:25.842Z,100091.28
2022-11-21T10:42:05.873Z,100079.28
2022-11-21T10:44:51.758Z,100070.38
2022-11-21T10:47:27.913Z,100060.84
2022-11-21T10:50:26.395Z,100066.66
2022-11-21T10:53:24.927Z,100046.59
2022-11-21T10:56:12.677Z,100053.69
2022-11-21T10:58:44.995Z,100046.50
2022-11-21T11:01:34.096Z,100045.91
2022-11-21T11:04:26.592Z,100058.47
2022-11-21T11:06:54.757Z,100053.00
2022-11-21T11:09:33.765Z,100039.72
2022-11-21T11:12:49.938Z,100044.91
2022-11-21T11:15:23.027Z,100036.47
2022-11-21T11:17:57.325Z,100037.97
2022-11-21T11:20:42.516Z,100026.13
2022-11-21T11:23:22.563Z,100040.63
2022-11-21T11:25:57.862Z,100036.44
2022-11-21T11:28:26.735Z,100022.91
2022-11-21T11:30:55.867Z,100025.31
2022-11-21T11:33:38.634Z,100016.50
2022-11-21T11:36:39.482Z,100001.69
2022-11-21T11:39:19.603Z,100004.25
2022-11-21T11:42:12.460Z,99998.59
2022-11-21T11:45:25.002Z,99995.50
2022-11-21T11:47:58.829Z,99983.88
2022-11-21T11:50:41.106Z,99989.31
2022-11-21T11:53:19.087Z,99980.16
2022-11-21T11:55:53.232Z,99979.44
2022-11-21T11:58:24.705Z,99977.53
2022-11-21T12:00:56.891Z,99971.72
2022-11-21T12:03:35.472Z,99971.81
2022-11-21T12:06:18.479Z,99967.25
2022-11-21T12:08:54.548Z,99962.50
2022-11-21T12:12:08.241Z,99953.38
2022-11-21T12:15:06.470Z,99960.50
2022-11-21T12:17:54.919Z,99962.16
2022-11-21T12:20:30.651Z,99956.50
2022-11-21T12:22:58.083Z,99962.50
2022-11-21T12:25:37.550Z,99952.53
2022-11-21T12:28:17.739Z,99952.53
2022-11-21T12:31:40.371Z,99936.41
2022-11-21T12:34:45.283Z,99931.84
2022-11-21T12:37:39.448Z,99922.22
2022-11-21T12:40:22.140Z,99912.50
2022-11-21T12:42:58.275Z,99907.84
2022-11-21T12:46:21.367Z,99897.03
2022-11-21T12:49:28.219Z,99891.59
2022-11-21T12:52:20.606Z,99892.47
2022-11-21T12:54:58.185Z,99889.00
2022-11-21T12:57:48.595Z,99877.56
2022-11-21T13:00:37.129Z,99877.38
2022-11-21T13:03:10.449Z,99877.72
2022-11-21T13:05:42.671Z,99874.25
2022-11-21T13:08:26.757Z,99879.56
2022-11-21T13:11:17.383Z,99884.91
2022-11-21T13:13:48.259Z,99874.09
2022-11-21T13:16:36.751Z,99873.69
2022-11-21T13:19:31.665Z,99878.00
2022-11-21T13:21:59.036Z,99878.81
2022-11-21T13:24:44.651Z,99894.06
2022-11-21T13:27:28.613Z,99896.78
2022-11-21T13:30:07.760Z,99901.34
2022-11-21T13:32:54.783Z,99897.72
2022-11-21T13:35:22.174Z,99906.94
2022-11-21T13:37:49.547Z,99910.50
2022-11-21T13:40:29.990Z,99906.56
2022-11-21T13:43:31.969Z,99904.88
2022-11-21T13:45:59.324Z,99904.22
2022-11-21T13:48:26.772Z,99892.09
2022-11-21T13:51:27.799Z,99885.47
2022-11-21T13:54:16.168Z,99882.69
2022-11-21T13:57:05.464Z,99885.34
2022-11-21T14:00:13.283Z,99877.16
2022-11-21T14:03:05.106Z,99870.22
2022-11-21T14:05:50.833Z,99868.38
2022-11-21T14:08:22.298Z,99871.69
2022-11-21T14:10:54.680Z,99869.34
2022-11-21T14:13:31.320Z,99861.94
2022-11-21T14:16:08.816Z,99859.03
2022-11-21T14:18:39.021Z,99860.72
2022-11-21T14:21:08.312Z,99865.97
2022-11-21T14:23:35.662Z,99880.28
2022-11-21T14:26:11.059Z,99875.97
2022-11-21T14:28:38.617Z,99874.06
2022-11-21T14:31:08.302Z,99885.47
2022-11-21T14:33:37.452Z,99878.44
2022-11-21T14:36:21.227Z,99889.94
2022-11-21T14:39:35.391Z,99895.25
2022-11-21T14:41:58.022Z,99890.84
2022-11-21T14:44:26.022Z,99888.31
2022-11-21T14:47:21.246Z,99886.91
2022-11-21T14:50:00.890Z,99888.84
2022-11-21T14:52:31.679Z,99885.28
2022-11-21T14:57:55.491Z,99876.63
2022-11-21T15:03:21.800Z,99881.88
2022-11-21T15:06:08.199Z,99884.75
2022-11-21T15:09:33.377Z,99889.28
2022-11-21T15:11:47.615Z,99891.06
2022-11-21T15:14:17.970Z,99880.44
2022-11-21T15:16:49.101Z,99878.78
2022-11-21T15:19:35.143Z,99871.91
2022-11-21T15:22:04.622Z,99884.19
2022-11-21T15:24:42.227Z,99877.19
2022-11-21T15:27:28.005Z,99876.13
2022-11-21T15:30:10.645Z,99867.16
2022-11-21T15:33:15.747Z,99868.91
2022-11-21T15:36:11.149Z,99863.38
2022-11-21T15:38:44.533Z,99864.50
2022-11-21T15:41:12.046Z,99855.97
2022-11-21T15:43:48.187Z,99854.06
2022-11-21T15:46:25.852Z,99851.81
2022-11-21T15:48:54.572Z,99855.19
2022-11-21T15:51:51.457Z,99861.34
2022-11-21T15:54:19.879Z,99845.78
2022-11-21T15:56:47.555Z,99842.97
2022-11-21T15:59:15.932Z,99843.78
2022-11-21T16:01:43.388Z,99830.56
2022-11-21T16:04:12.495Z,99840.75
2022-11-21T16:06:39.927Z,99819.56
2022-11-21T16:09:07.455Z,99824.41
2022-11-21T16:11:40.806Z,99816.59
2022-11-21T16:14:08.853Z,99824.69
2022-11-21T16:16:43.135Z,99826.06
2022-11-21T16:19:12.592Z,99835.88
2022-11-21T16:21:40.434Z,99820.88
2022-11-21T16:24:08.162Z,99828.81
2022-11-21T16:26:35.577Z,99810.31
2022-11-21T16:29:06.628Z,99786.69
2022-11-21T16:31:34.491Z,99792.34
2022-11-21T16:34:02.627Z,99792.03
2022-11-21T16:36:31.784Z,99794.91
2022-11-21T16:39:07.879Z,99798.44
2022-11-21T16:41:39.453Z,99792.91
2022-11-21T16:44:13.931Z,99781.69
2022-11-21T16:46:43.378Z,99775.88
2022-11-21T16:49:11.335Z,99760.31
2022-11-21T16:51:38.822Z,99759.25
2022-11-21T16:54:09.121Z,99757.56
2022-11-21T16:56:37.049Z,99747.00
2022-11-21T16:59:04.488Z,99755.81
2022-11-21T17:01:32.044Z,99755.06
2022-11-21T17:03:59.596Z,99749.81
2022-11-21T17:06:30.316Z,99754.78
2022-11-21T17:09:02.721Z,99750.47
2022-11-21T17:11:31.987Z,99749.25
2022-11-21T17:14:02.241Z,99751.31
2022-11-21T17:16:30.127Z,99756.50
2022-11-21T17:18:59.698Z,99753.13
2022-11-21T17:21:28.043Z,99752.72
2022-11-21T17:23:55.483Z,99735.28
2022-11-21T17:26:25.347Z,99730.88
2022-11-21T17:28:54.290Z,99729.72
2022-11-21T17:31:22.338Z,99718.44
2022-11-21T17:33:51.828Z,99739.41
2022-11-21T17:36:21.846Z,99743.97
2022-11-21T17:38:49.281Z,99742.13
2022-11-21T17:41:19.149Z,99738.34
2022-11-21T17:43:48.319Z,99737.34
2022-11-21T17:46:18.661Z,99731.25
2022-11-21T17:48:53.223Z,99744.44
2022-11-21T17:51:25.559Z,99745.25
2022-11-21T17:53:54.653Z,99744.72
2022-11-21T17:56:25.155Z,99744.56
2022-11-21T17:58:52.957Z,99740.81
2022-11-21T18:01:21.941Z,99740.75
2022-11-21T18:03:56.014Z,99742.16
2022-11-21T18:06:26.534Z,99741.28
2022-11-21T18:08:55.937Z,99732.47
2022-11-21T18:11:23.291Z,99725.22
2022-11-21T18:13:50.891Z,99728.69
2022-11-21T18:16:21.465Z,99722.66
2022-11-21T18:18:49.876Z,99713.81
2022-11-21T18:21:28.977Z,99704.13
2022-11-21T18:23:57.642Z,99696.88
2022-11-21T18:26:41.012Z,99690.84
2022-11-21T18:31:57.101Z,99690.16
2022-11-21T18:34:24.441Z,99684.00
2022-11-21T18:36:51.853Z,99690.84
2022-11-21T18:39:19.341Z,99682.69
2022-11-21T18:41:47.130Z,99672.69
2022-11-21T18:44:21.270Z,99672.16
2022-11-21T18:46:49.255Z,99671.78
2022-11-21T18:49:16.673Z,99670.16
2022-11-21T18:51:44.239Z,99673.28
2022-11-21T18:54:11.731Z,99658.53
2022-11-21T18:56:40.118Z,99662.78
2022-11-21T18:59:08.002Z,99655.78
2022-11-21T19:01:37.397Z,99660.13
2022-11-21T19:04:05.489Z,99666.81
2022-11-21T19:06:32.971Z,99660.78
2022-11-21T19:09:00.414Z,99661.28
2022-11-21T19:11:29.537Z,99668.28
2022-11-21T19:13:59.286Z,99673.00
2022-11-21T19:16:28.432Z,99665.75
2022-11-21T19:19:32.311Z,99662.25
2022-11-21T19:21:45.865Z,99660.47
2022-11-21T19:24:14.644Z,99657.72
2022-11-21T19:26:42.792Z,99660.19
2022-11-21T19:29:10.678Z,99661.69
2022-11-21T19:31:43.019Z,99653.59
2022-11-21T19:34:14.208Z,99648.41
2022-11-21T19:36:41.946Z,99635.00
2022-11-21T19:39:09.473Z,99633.25
2022-11-21T19:41:36.928Z,99620.69
2022-11-21T19:44:04.424Z,99623.41
2022-11-21T19:46:35.354Z,99621.63
2022-11-21T19:49:03.523Z,99617.25
2022-11-21T19:51:33.711Z,99614.44
2022-11-21T19:54:05.465Z,99620.56
2022-11-21T19:56:33.258Z,99623.16
2022-11-21T19:59:00.675Z,99620.34
2022-11-21T20:01:30.094Z,99628.34
2022-11-21T20:04:02.834Z,99596.50
2022-11-21T20:06:39.111Z,99598.22
2022-11-21T20:09:12.443Z,99586.88
2022-11-21T20:11:42.115Z,99580.06
2022-11-21T20:14:10.389Z,99601.38
2022-11-21T20:16:40.683Z,99596.78
2022-11-21T20:19:11.608Z,99588.81
2022-11-21T20:21:39.225Z,99587.59
2022-11-21T20:24:07.548Z,99598.22
2022-11-21T20:26:36.375Z,99598.50
2022-11-21T20:29:04.873Z,99580.97
2022-11-21T20:31:34.471Z,99590.78
2022-11-21T20:34:04.584Z,99594.28
2022-11-21T20:36:34.060Z,99599.44
2022-11-21T20:39:07.131Z,99598.38
2022-11-21T20:41:37.160Z,99589.72
2022-11-21T20:46:54.503Z,99587.16
2022-11-21T20:49:22.526Z,99594.28
2022-11-21T20:53:20.616Z,99583.84
2022-11-21T20:54:38.551Z,99591.81
2022-11-21T20:57:10.449Z,99591.69
2022-11-21T20:59:42.011Z,99586.56
2022-11-21T21:02:12.682Z,99592.63
2022-11-21T21:04:40.111Z,99595.13
2022-11-21T21:07:07.633Z,99597.47
2022-11-21T21:09:36.023Z,99582.91
2022-11-21T21:12:04.026Z,99586.13
2022-11-21T21:14:31.717Z,99595.34
2022-11-21T21:17:02.018Z,99585.06
2022-11-21T21:19:29.676Z,99581.53
2022-11-21T21:21:57.454Z,99586.13
2022-11-21T21:24:24.933Z,99575.69
2022-11-21T21:26:52.323Z,99572.28
2022-11-21T21:29:21.181Z,99576.22
2022-11-21T21:31:52.888Z,99578.88
2022-11-21T21:34:24.136Z,99569.13
2022-11-21T21:36:51.932Z,99550.84
2022-11-21T21:39:19.728Z,99547.47
2022-11-21T21:41:47.907Z,99537.97
2022-11-21T21:44:16.263Z,99552.03
2022-11-21T21:46:53.668Z,99541.19
2022-11-21T21:49:24.156Z,99532.69
2022-11-21T21:51:54.236Z,99535.09
2022-11-21T21:54:22.626Z,99545.97
2022-11-21T21:56:57.268Z,99520.69
2022-11-21T21:59:25.893Z,99546.81
2022-11-21T22:02:02.259Z,99534.28
2022-11-21T22:04:33.930Z,99534.44
2022-11-21T22:07:08.228Z,99532.75
2022-11-21T22:09:37.981Z,99531.41
2022-11-21T22:12:05.558Z,99517.94
2022-11-21T22:14:32.941Z,99515.56
2022-11-21T22:17:00.311Z,99519.88
2022-11-21T22:19:28.342Z,99519.88
2022-11-21T22:21:55.931Z,99516.38
2022-11-21T22:24:26.242Z,99517.88
2022-11-21T22:26:54.223Z,99512.97
2022-11-21T22:29:21.697Z,99502.44
2022-11-21T22:31:49.312Z,99489.38
2022-11-21T22:34:16.592Z,99484.72
2022-11-21T22:36:44.820Z,99483.09
2022-11-21T22:39:12.254Z,99477.72
2022-11-21T22:41:39.625Z,99468.84
2022-11-21T22:44:06.965Z,99467.31
2022-11-21T22:46:34.706Z,99476.78
2022-11-21T22:49:02.090Z,99479.19
2022-11-21T22:51:29.983Z,99470.31
2022-11-21T22:53:57.797Z,99468.56
2022-11-21T22:56:26.032Z,99458.97
2022-11-21T22:58:53.736Z,99462.34
2022-11-21T23:01:23.238Z,99455.66
2022-11-21T23:03:50.698Z,99459.22
2022-11-21T23:06:21.325Z,99437.88
2022-11-21T23:08:48.886Z,99431.97
2022-11-21T23:11:19.749Z,99425.09
2022-11-21T23:13:47.808Z,99421.38
2022-11-21T23:16:16.029Z,99407.94
2022-11-21T23:18:45.191Z,99401.94
2022-11-21T23:21:13.442Z,99411.63
2022-11-21T23:23:41.092Z,99408.56
2022-11-21T23:26:08.472Z,99401.94
2022-11-21T23:28:36.344Z,99381.00
2022-11-21T23:31:03.994Z,99370.75
2022-11-21T23:33:31.924Z,99366.91
2022-11-21T23:35:59.292Z,99351.06
2022-11-21T23:38:26.723Z,99333.44
2022-11-21T23:40:54.113Z,99329.00
2022-11-21T23:43:21.543Z,99327.19
2022-11-21T23:45:53.191Z,99308.72
2022-11-21T23:48:22.252Z,99302.28
2022-11-21T23:50:52.442Z,99312.81
2022-11-21T23:53:21.893Z,99300.38
2022-11-21T23:55:50.256Z,99296.56
2022-11-21T23:58:17.702Z,99301.88
